createdAt,value
2023-04-30T00:00:11.254Z,10.49
2023-04-30T00:02:39.624Z,10.34
2023-04-30T00:05:08.068Z,10.27
2023-04-30T00:07:36.122Z,10.22
2023-04-30T00:10:05.627Z,10.22
2023-04-30T00:12:34.837Z,10.17
2023-04-30T00:15:02.649Z,10.16
2023-04-30T00:17:30.524Z,10.19
2023-04-30T00:19:58.312Z,10.18
2023-04-30T00:22:26.137Z,10.14
2023-04-30T00:24:54.055Z,10.03
2023-04-30T00:27:21.896Z,10.04
2023-04-30T00:29:51.250Z,10.00
2023-04-30T00:32:19.207Z,10.00
2023-04-30T00:34:47.257Z,9.96
2023-04-30T00:37:15.096Z,9.94
2023-04-30T00:39:42.944Z,9.85
2023-04-30T00:42:10.838Z,9.82
2023-04-30T00:44:38.583Z,9.84
2023-04-30T00:47:07.735Z,9.86
2023-04-30T00:49:35.724Z,9.90
2023-04-30T00:52:03.641Z,9.88
2023-04-30T00:54:31.746Z,9.89
2023-04-30T00:56:59.874Z,9.88
2023-04-30T00:59:30.100Z,9.87
2023-04-30T01:01:57.981Z,9.82
2023-04-30T01:04:27.504Z,9.73
2023-04-30T01:06:55.562Z,9.64
2023-04-30T01:09:23.549Z,9.62
2023-04-30T01:12:04.746Z,9.63
2023-04-30T01:14:41.949Z,9.61
2023-04-30T01:17:18.753Z,9.58
2023-04-30T01:19:48.240Z,9.58
2023-04-30T01:22:32.990Z,9.55
2023-04-30T01:25:20.311Z,9.50
2023-04-30T01:28:15.936Z,9.42
2023-04-30T01:30:45.792Z,9.39
2023-04-30T01:33:13.828Z,9.32
2023-04-30T01:35:58.114Z,9.24
2023-04-30T01:38:35.917Z,9.22
2023-04-30T01:41:11.670Z,9.17
2023-04-30T01:43:51.061Z,9.14
2023-04-30T01:46:25.753Z,9.17
2023-04-30T01:48:59.970Z,9.13
2023-04-30T01:51:33.795Z,9.09
2023-04-30T01:54:07.250Z,9.04
2023-04-30T01:56:41.866Z,9.04
2023-04-30T01:59:12.036Z,9.01
2023-04-30T02:01:39.886Z,9.03
2023-04-30T02:04:07.703Z,9.03
2023-04-30T02:06:35.734Z,8.93
2023-04-30T02:09:05.425Z,8.94
2023-04-30T02:11:33.437Z,8.95
2023-04-30T02:14:01.271Z,8.92
2023-04-30T02:16:30.458Z,8.87
2023-04-30T02:18:58.272Z,8.87
2023-04-30T02:21:27.289Z,8.76
2023-04-30T02:23:55.528Z,8.70
2023-04-30T02:26:23.304Z,8.60
2023-04-30T02:28:51.008Z,8.57
2023-04-30T02:31:18.981Z,8.54
2023-04-30T02:33:48.360Z,8.49
2023-04-30T02:36:16.105Z,8.49
2023-04-30T02:38:43.822Z,8.42
2023-04-30T02:41:11.530Z,8.44
2023-04-30T02:43:39.329Z,8.41
2023-04-30T02:46:07.163Z,8.40
2023-04-30T02:48:34.890Z,8.40
2023-04-30T02:51:04.644Z,8.33
2023-04-30T02:53:32.425Z,8.41
2023-04-30T02:56:00.650Z,8.48
2023-04-30T02:58:28.468Z,8.51
2023-04-30T03:00:56.351Z,8.56
2023-04-30T03:03:24.197Z,8.57
2023-04-30T03:05:52.079Z,8.56
2023-04-30T03:08:21.240Z,8.52
2023-04-30T03:10:49.069Z,8.50
2023-04-30T03:13:16.883Z,8.47
2023-04-30T03:15:45.232Z,8.48
2023-04-30T03:18:13.148Z,8.48
2023-04-30T03:20:41.016Z,8.49
2023-04-30T03:23:08.733Z,8.51
2023-04-30T03:25:40.476Z,8.43
2023-04-30T03:28:08.234Z,8.39
2023-04-30T03:30:36.584Z,8.37
2023-04-30T03:33:06.644Z,8.35
2023-04-30T03:35:34.656Z,8.36
2023-04-30T03:38:02.444Z,8.29
2023-04-30T03:40:30.193Z,8.28
2023-04-30T03:42:59.440Z,8.21
2023-04-30T03:45:27.239Z,8.23
2023-04-30T03:47:55.216Z,8.15
2023-04-30T03:50:23.019Z,8.11
2023-04-30T03:52:50.800Z,8.11
2023-04-30T03:55:18.795Z,8.15
2023-04-30T03:57:46.604Z,8.21
2023-04-30T04:00:16.309Z,8.22
2023-04-30T04:02:44.323Z,8.14
2023-04-30T04:05:12.135Z,8.06
2023-04-30T04:07:39.942Z,8.02
2023-04-30T04:10:08.855Z,7.93
2023-04-30T04:12:36.956Z,7.95
2023-04-30T04:15:05.149Z,7.96
2023-04-30T04:17:34.302Z,7.94
2023-04-30T04:20:02.124Z,8.00
2023-04-30T04:22:29.921Z,8.04
2023-04-30T04:24:57.683Z,8.02
2023-04-30T04:27:25.450Z,7.92
2023-04-30T04:29:55.165Z,7.94
2023-04-30T04:32:24.583Z,7.99
2023-04-30T04:34:55.354Z,8.01
2023-04-30T04:37:23.418Z,8.06
2023-04-30T04:39:51.602Z,8.06
2023-04-30T04:42:20.080Z,8.06
2023-04-30T04:44:48.135Z,8.11
2023-04-30T04:47:16.703Z,8.18
2023-04-30T04:49:44.483Z,8.25
2023-04-30T04:52:13.663Z,8.28
2023-04-30T04:54:41.546Z,8.30
2023-04-30T04:57:09.333Z,8.34
2023-04-30T04:59:37.102Z,8.32
2023-04-30T05:02:04.937Z,8.28
2023-04-30T05:04:32.817Z,8.29
2023-04-30T05:07:00.659Z,8.41
2023-04-30T05:09:29.750Z,8.53
2023-04-30T05:11:57.491Z,8.58
2023-04-30T05:14:25.358Z,8.63
2023-04-30T05:16:53.354Z,8.73
2023-04-30T05:19:21.049Z,8.79
2023-04-30T05:21:48.840Z,8.85
2023-04-30T05:24:16.669Z,8.92
2023-04-30T05:26:45.871Z,8.94
2023-04-30T05:29:14.818Z,8.96
2023-04-30T05:31:42.845Z,9.04
2023-04-30T05:34:10.600Z,9.10
2023-04-30T05:36:39.136Z,9.14
2023-04-30T05:39:06.883Z,9.17
2023-04-30T05:41:34.690Z,9.19
2023-04-30T05:44:05.059Z,9.21
2023-04-30T05:46:32.984Z,9.18
2023-04-30T05:49:00.856Z,9.29
2023-04-30T05:51:29.402Z,9.39
2023-04-30T05:53:57.573Z,9.44
2023-04-30T05:56:26.150Z,9.57
2023-04-30T05:58:53.951Z,9.67
2023-04-30T06:01:24.411Z,9.78
2023-04-30T06:03:52.429Z,9.89
2023-04-30T06:06:20.412Z,9.99
2023-04-30T06:08:48.318Z,10.05
2023-04-30T06:11:16.463Z,10.15
2023-04-30T06:13:44.500Z,10.21
2023-04-30T06:16:12.659Z,10.25
2023-04-30T06:18:42.050Z,10.33
2023-04-30T06:21:09.878Z,10.39
2023-04-30T06:23:38.607Z,10.47
2023-04-30T06:26:06.368Z,10.52
2023-04-30T06:28:34.232Z,10.59
2023-04-30T06:31:02.095Z,10.66
2023-04-30T06:33:30.167Z,10.78
2023-04-30T06:36:00.639Z,10.83
2023-04-30T06:38:28.542Z,10.94
2023-04-30T06:40:56.512Z,10.99
2023-04-30T06:43:25.741Z,11.02
2023-04-30T06:45:53.572Z,11.10
2023-04-30T06:48:21.447Z,11.18
2023-04-30T06:50:49.348Z,11.21
2023-04-30T06:53:18.684Z,11.20
2023-04-30T06:55:47.530Z,11.17
2023-04-30T06:58:15.432Z,11.19
2023-04-30T07:00:43.914Z,11.29
2023-04-30T07:03:11.905Z,11.33
2023-04-30T07:05:39.889Z,11.36
2023-04-30T07:08:08.729Z,11.47
2023-04-30T07:10:38.372Z,11.57
2023-04-30T07:13:08.330Z,11.64
2023-04-30T07:15:37.577Z,11.70
2023-04-30T07:18:07.536Z,11.78
2023-04-30T07:20:35.682Z,11.81
2023-04-30T07:23:03.593Z,11.82
2023-04-30T07:25:31.549Z,11.91
2023-04-30T07:28:01.181Z,11.98
2023-04-30T07:30:29.028Z,12.08
2023-04-30T07:32:57.623Z,12.17
2023-04-30T07:35:25.685Z,12.29
2023-04-30T07:37:53.553Z,12.38
2023-04-30T07:40:29.149Z,12.46
2023-04-30T07:43:05.701Z,12.44
2023-04-30T07:45:34.839Z,12.50
2023-04-30T07:48:03.112Z,12.59
2023-04-30T07:50:34.009Z,12.64
2023-04-30T07:53:02.938Z,12.60
2023-04-30T07:55:31.247Z,12.60
2023-04-30T07:58:00.025Z,12.63
2023-04-30T08:00:31.068Z,12.71
2023-04-30T08:03:00.399Z,12.83
2023-04-30T08:05:28.419Z,12.92
2023-04-30T08:07:56.175Z,12.89
2023-04-30T08:10:24.284Z,12.82
2023-04-30T08:12:53.150Z,12.85
2023-04-30T08:15:22.224Z,12.79
2023-04-30T08:17:53.016Z,12.88
2023-04-30T08:20:23.917Z,13.02
2023-04-30T08:22:52.309Z,13.18
2023-04-30T08:25:20.807Z,13.28
2023-04-30T08:27:49.033Z,13.33
2023-04-30T08:30:17.390Z,13.44
2023-04-30T08:32:46.115Z,13.48
2023-04-30T08:35:17.201Z,13.59
2023-04-30T08:37:45.226Z,13.69
2023-04-30T08:40:14.128Z,13.75
2023-04-30T08:42:46.349Z,13.78
2023-04-30T08:45:14.691Z,13.84
2023-04-30T08:47:43.072Z,13.89
2023-04-30T08:50:10.994Z,13.98
2023-04-30T08:52:41.506Z,14.02
2023-04-30T08:55:11.280Z,14.12
2023-04-30T08:57:39.750Z,14.24
2023-04-30T09:00:08.890Z,14.38
2023-04-30T09:02:40.776Z,14.45
2023-04-30T09:05:12.636Z,14.54
2023-04-30T09:07:48.921Z,14.64
2023-04-30T09:10:24.093Z,14.74
2023-04-30T09:13:01.694Z,14.80
2023-04-30T09:15:30.488Z,14.85
2023-04-30T09:18:09.579Z,14.90
2023-04-30T09:20:38.630Z,14.95
2023-04-30T09:23:09.400Z,15.00
2023-04-30T09:25:41.760Z,15.08
2023-04-30T09:28:14.230Z,15.17
2023-04-30T09:30:42.884Z,15.25
2023-04-30T09:33:12.284Z,15.35
2023-04-30T09:35:41.825Z,15.32
2023-04-30T09:38:27.590Z,15.36
2023-04-30T09:40:55.444Z,15.47
2023-04-30T09:43:23.367Z,15.60
2023-04-30T09:45:51.727Z,15.72
2023-04-30T09:48:22.288Z,15.78
2023-04-30T09:50:50.613Z,15.76
2023-04-30T09:53:21.615Z,15.73
2023-04-30T09:55:50.924Z,15.80
2023-04-30T09:58:20.576Z,15.83
2023-04-30T10:00:49.630Z,15.77
2023-04-30T10:03:17.725Z,15.85
2023-04-30T10:05:48.437Z,15.96
2023-04-30T10:08:24.208Z,16.02
2023-04-30T10:10:59.576Z,16.05
2023-04-30T10:13:31.448Z,16.06
2023-04-30T10:16:03.193Z,16.01
2023-04-30T10:18:35.738Z,15.97
2023-04-30T10:21:10.366Z,16.06
2023-04-30T10:23:42.255Z,16.12
2023-04-30T10:26:12.374Z,15.98
2023-04-30T10:28:40.851Z,15.89
2023-04-30T10:31:10.765Z,15.85
2023-04-30T10:33:50.026Z,16.04
2023-04-30T10:36:27.867Z,16.24
2023-04-30T10:38:58.308Z,16.37
2023-04-30T10:41:28.538Z,16.39
2023-04-30T10:44:01.843Z,16.55
2023-04-30T10:46:30.189Z,16.70
2023-04-30T10:48:58.285Z,16.89
2023-04-30T10:51:46.391Z,17.06
2023-04-30T10:54:18.846Z,17.03
2023-04-30T10:56:48.187Z,17.00
2023-04-30T10:59:16.397Z,17.09
2023-04-30T11:01:58.732Z,16.92
2023-04-30T11:04:27.438Z,16.88
2023-04-30T11:07:08.721Z,16.98
2023-04-30T11:09:42.463Z,17.00
2023-04-30T11:12:16.366Z,17.08
2023-04-30T11:14:46.492Z,17.18
2023-04-30T11:17:25.245Z,17.25
2023-04-30T11:19:55.055Z,17.25
2023-04-30T11:22:24.809Z,17.19
2023-04-30T11:25:05.770Z,17.24
2023-04-30T11:27:35.520Z,17.27
2023-04-30T11:30:05.527Z,17.41
2023-04-30T11:32:35.915Z,17.66
2023-04-30T11:35:04.944Z,17.80
2023-04-30T11:37:35.814Z,17.91
2023-04-30T11:40:07.975Z,17.75
2023-04-30T11:42:36.727Z,17.85
2023-04-30T11:45:06.832Z,17.84
2023-04-30T11:47:45.686Z,17.63
2023-04-30T11:50:15.259Z,17.69
2023-04-30T11:52:44.216Z,17.77
2023-04-30T11:55:18.209Z,17.79
2023-04-30T11:57:47.750Z,17.83
2023-04-30T12:00:17.833Z,17.89
2023-04-30T12:02:48.293Z,18.00
2023-04-30T12:05:18.113Z,18.02
2023-04-30T12:07:48.189Z,18.06
2023-04-30T12:10:17.962Z,18.20
2023-04-30T12:12:46.122Z,18.38
2023-04-30T12:15:18.884Z,18.39
2023-04-30T12:17:48.160Z,18.43
2023-04-30T12:20:17.170Z,18.52
2023-04-30T12:22:45.721Z,18.70
2023-04-30T12:25:15.116Z,18.85
2023-04-30T12:27:48.936Z,18.98
2023-04-30T12:30:21.339Z,19.12
2023-04-30T12:32:51.768Z,19.16
2023-04-30T12:35:22.076Z,19.24
2023-04-30T12:37:51.338Z,19.29
2023-04-30T12:40:20.571Z,19.19
2023-04-30T12:42:51.995Z,19.13
2023-04-30T12:45:44.520Z,19.22
2023-04-30T12:48:12.620Z,19.41
2023-04-30T12:50:40.851Z,19.52
2023-04-30T12:53:10.026Z,19.54
2023-04-30T12:55:39.508Z,19.65
2023-04-30T12:58:10.932Z,19.78
2023-04-30T13:00:50.333Z,19.66
2023-04-30T13:03:21.188Z,19.75
2023-04-30T13:05:50.888Z,19.75
2023-04-30T13:08:20.797Z,19.63
2023-04-30T13:10:50.110Z,19.58
2023-04-30T13:13:20.472Z,19.77
2023-04-30T13:15:48.597Z,19.96
2023-04-30T13:18:17.009Z,20.11
2023-04-30T13:20:46.005Z,20.19
2023-04-30T13:23:14.090Z,20.14
2023-04-30T13:25:42.788Z,19.86
2023-04-30T13:28:10.761Z,19.59
2023-04-30T13:30:41.217Z,19.55
2023-04-30T13:33:09.584Z,19.58
2023-04-30T13:35:39.086Z,19.50
2023-04-30T13:38:07.436Z,19.25
2023-04-30T13:40:35.593Z,19.29
2023-04-30T13:43:04.385Z,19.27
2023-04-30T13:45:32.384Z,19.38
2023-04-30T13:48:01.876Z,19.50
2023-04-30T13:50:30.804Z,19.64
2023-04-30T13:52:59.501Z,19.73
2023-04-30T13:55:30.003Z,19.76
2023-04-30T13:57:58.726Z,19.78
2023-04-30T14:00:26.826Z,19.80
2023-04-30T14:02:55.810Z,19.87
2023-04-30T14:05:25.466Z,19.86
2023-04-30T14:07:53.451Z,19.91
2023-04-30T14:10:21.687Z,19.85
2023-04-30T14:12:49.785Z,19.61
2023-04-30T14:15:17.998Z,19.52
2023-04-30T14:17:46.144Z,19.34
2023-04-30T14:20:14.996Z,19.31
2023-04-30T14:22:55.503Z,19.45
2023-04-30T14:25:24.099Z,19.30
2023-04-30T14:27:52.533Z,19.24
2023-04-30T14:30:20.522Z,19.17
2023-04-30T14:32:48.619Z,19.08
2023-04-30T14:35:16.766Z,19.30
2023-04-30T14:37:46.469Z,19.63
2023-04-30T14:40:16.413Z,19.74
2023-04-30T14:42:44.536Z,19.84
2023-04-30T14:45:13.020Z,19.90
2023-04-30T14:47:42.290Z,19.81
2023-04-30T14:50:11.207Z,19.97
2023-04-30T14:52:42.254Z,20.04
2023-04-30T14:55:12.833Z,19.96
2023-04-30T14:57:41.302Z,19.76
2023-04-30T15:00:11.312Z,19.51
2023-04-30T15:02:39.798Z,19.40
2023-04-30T15:05:09.222Z,19.31
2023-04-30T15:07:38.138Z,19.43
2023-04-30T15:10:08.198Z,19.50
2023-04-30T15:12:39.957Z,19.47
2023-04-30T15:15:09.869Z,19.46
2023-04-30T15:17:41.542Z,19.44
2023-04-30T15:20:11.043Z,19.38
2023-04-30T15:22:39.409Z,19.31
2023-04-30T15:25:13.644Z,19.29
2023-04-30T15:27:47.748Z,19.27
2023-04-30T15:30:18.884Z,19.30
2023-04-30T15:32:48.800Z,19.32
2023-04-30T15:35:18.832Z,19.32
2023-04-30T15:37:47.209Z,19.22
2023-04-30T15:40:18.161Z,19.16
2023-04-30T15:42:48.230Z,19.07
2023-04-30T15:45:16.667Z,19.00
2023-04-30T15:47:45.724Z,19.05
2023-04-30T15:50:14.205Z,18.97
2023-04-30T15:52:42.501Z,18.91
2023-04-30T15:55:11.371Z,18.92
2023-04-30T15:57:39.542Z,18.98
2023-04-30T16:00:11.447Z,18.94
2023-04-30T16:02:41.518Z,18.91
2023-04-30T16:05:10.518Z,18.92
2023-04-30T16:07:40.362Z,18.84
2023-04-30T16:10:11.084Z,18.70
2023-04-30T16:12:39.489Z,18.87
2023-04-30T16:15:11.172Z,18.97
2023-04-30T16:17:39.487Z,18.98
2023-04-30T16:20:09.228Z,18.82
2023-04-30T16:22:37.696Z,18.83
2023-04-30T16:25:08.056Z,18.85
2023-04-30T16:27:39.625Z,18.88
2023-04-30T16:30:11.480Z,18.75
2023-04-30T16:32:46.060Z,18.82
2023-04-30T16:35:14.666Z,18.87
2023-04-30T16:37:42.804Z,18.76
2023-04-30T16:40:12.377Z,18.61
2023-04-30T16:42:40.671Z,18.52
2023-04-30T16:45:11.316Z,18.59
2023-04-30T16:47:41.865Z,18.66
2023-04-30T16:50:11.205Z,18.70
2023-04-30T16:52:39.440Z,18.71
2023-04-30T16:55:11.607Z,18.68
2023-04-30T16:57:39.667Z,18.60
2023-04-30T17:00:12.559Z,18.56
2023-04-30T17:02:41.077Z,18.49
2023-04-30T17:05:11.097Z,18.37
2023-04-30T17:07:44.671Z,18.38
2023-04-30T17:10:14.650Z,18.37
2023-04-30T17:12:46.167Z,18.41
2023-04-30T17:15:29.446Z,18.30
2023-04-30T17:17:58.993Z,18.26
2023-04-30T17:20:27.266Z,18.22
2023-04-30T17:22:56.281Z,18.21
2023-04-30T17:25:24.656Z,18.10
2023-04-30T17:27:57.576Z,18.06
2023-04-30T17:30:27.011Z,18.04
2023-04-30T17:32:56.753Z,17.94
2023-04-30T17:35:25.438Z,17.95
2023-04-30T17:37:53.714Z,17.89
2023-04-30T17:40:22.384Z,17.77
2023-04-30T17:42:52.066Z,17.67
2023-04-30T17:45:20.337Z,17.74
2023-04-30T17:47:49.966Z,17.75
2023-04-30T17:50:23.818Z,17.74
2023-04-30T17:53:23.621Z,17.78
2023-04-30T17:56:30.797Z,17.74
2023-04-30T17:59:32.371Z,17.63
2023-04-30T20:04:04.639Z,15.21
2023-04-30T20:10:30.493Z,15.10
2023-04-30T20:13:47.954Z,15.06
2023-04-30T20:17:28.551Z,14.99
2023-04-30T20:20:28.633Z,14.91
2023-04-30T20:22:54.855Z,14.85
2023-04-30T20:25:35.174Z,14.83
2023-04-30T20:28:44.281Z,14.76
2023-04-30T20:31:37.419Z,14.71
2023-04-30T20:38:39.089Z,14.62
2023-04-30T20:49:09.275Z,14.48
2023-04-30T20:51:36.851Z,14.36
2023-04-30T20:54:05.417Z,14.34
2023-04-30T20:56:34.946Z,14.32
2023-04-30T20:59:05.902Z,14.29
2023-04-30T21:01:34.102Z,14.28
2023-04-30T21:04:04.819Z,14.28
2023-04-30T21:06:33.241Z,14.25
2023-04-30T21:09:53.403Z,14.18
2023-04-30T21:12:23.238Z,14.14
2023-04-30T21:14:52.143Z,14.13
2023-04-30T21:17:20.298Z,14.13
2023-04-30T21:19:53.352Z,14.10
2023-04-30T21:22:24.152Z,14.09
2023-04-30T21:24:57.115Z,14.04
2023-04-30T21:27:26.807Z,14.00
2023-04-30T21:29:55.236Z,13.96
2023-04-30T21:32:23.588Z,13.90
2023-04-30T21:34:53.683Z,13.89
2023-04-30T21:37:22.199Z,13.84
2023-04-30T21:39:51.588Z,13.79
2023-04-30T21:42:22.126Z,13.76
2023-04-30T21:44:51.862Z,13.72
2023-04-30T21:47:22.031Z,13.72
2023-04-30T21:49:50.380Z,13.72
2023-04-30T21:52:18.622Z,13.69
2023-04-30T21:54:50.202Z,13.68
2023-04-30T21:57:19.541Z,13.59
2023-04-30T21:59:47.753Z,13.57
2023-04-30T22:02:23.948Z,13.49
2023-04-30T22:04:58.177Z,13.46
2023-04-30T22:07:27.577Z,13.48
2023-04-30T22:10:03.471Z,13.48
2023-04-30T22:12:32.054Z,13.49
2023-04-30T22:15:05.530Z,13.46
2023-04-30T22:17:35.625Z,13.45
2023-04-30T22:20:27.398Z,13.44
2023-04-30T22:22:56.015Z,13.42
2023-04-30T22:25:24.665Z,13.43
2023-04-30T22:27:52.995Z,13.41
2023-04-30T22:30:24.445Z,13.34
2023-04-30T22:32:57.609Z,13.35
2023-04-30T22:35:29.007Z,13.32
2023-04-30T22:38:01.956Z,13.29
2023-04-30T22:40:31.010Z,13.27
2023-04-30T22:43:00.288Z,13.25
2023-04-30T22:45:30.997Z,13.25
2023-04-30T22:48:01.956Z,13.21
2023-04-30T22:50:32.105Z,13.11
2023-04-30T22:53:02.857Z,13.12
2023-04-30T22:55:33.649Z,13.15
2023-04-30T22:58:02.108Z,13.15
2023-04-30T23:00:32.651Z,13.12
2023-04-30T23:03:02.644Z,13.10
2023-04-30T23:05:31.028Z,13.06
2023-04-30T23:07:59.363Z,13.04
2023-04-30T23:10:27.740Z,13.07
2023-04-30T23:12:56.635Z,13.06
2023-04-30T23:15:28.487Z,13.02
2023-04-30T23:17:58.471Z,12.97
2023-04-30T23:20:28.525Z,12.96
2023-04-30T23:22:59.977Z,12.95
2023-04-30T23:25:29.319Z,12.91
2023-04-30T23:27:58.257Z,12.90
2023-04-30T23:30:26.811Z,12.87
2023-04-30T23:32:54.892Z,12.83
2023-04-30T23:35:27.508Z,12.80
2023-04-30T23:37:57.371Z,12.80
2023-04-30T23:40:27.059Z,12.78
2023-04-30T23:42:55.537Z,12.75
2023-04-30T23:45:26.040Z,12.70
2023-04-30T23:47:54.214Z,12.68
2023-04-30T23:50:22.446Z,12.66
2023-04-30T23:52:50.686Z,12.62
2023-04-30T23:55:23.300Z,12.62
2023-04-30T23:57:53.392Z,12.59
